Gan-tribute — C6YK6 — position and weather

sailwx.info

Track history (hours):
 
Tides and Currents Weather Stations Pressure Air Temp Water Temp Dewpoint Dewpoint Depression Visibility Wind Speed Wind Dir Waves Ship Positions

Gan-tribute

Last reported at 2017-Sep-22 01:59 UTC. Time now 2017-Sep-23 00:31 UTC.
Position N 52°25' E 004°45'.

Length 183 m; draft 8.1 m.

Type: Tanker. MMSI: 311036600.

Date/timePositionNaut miles runAvg speedWind from/ knotsBaromVisibWave heightAir tempDewpointWater temp
2017-Sep-22 01:59N 52°25' E 004°45'0 0.0
2017-Sep-22 01:29N 52°25' E 004°45'0 0.0
2017-Sep-22 00:59N 52°25' E 004°45'0 0.0
2017-Sep-22 00:29N 52°25' E 004°45'0 0.0
2017-Sep-21 23:59N 52°25' E 004°45'0 0.0
2017-Sep-21 23:29N 52°25' E 004°45'0 0.0
2017-Sep-21 22:59N 52°25' E 004°45'0 0.0
2017-Sep-21 22:26N 52°25' E 004°45'0 0.0
2017-Sep-21 21:59N 52°25' E 004°45'0 0.0
2017-Sep-21 21:29N 52°25' E 004°45'0 0.0
2017-Sep-21 20:59N 52°25' E 004°45'0 0.0
2017-Sep-21 20:29N 52°25' E 004°45'0 0.0
2017-Sep-21 19:59N 52°25' E 004°45'0 0.0
2017-Sep-21 19:29N 52°25' E 004°45'0 0.0
2017-Sep-21 18:59N 52°25' E 004°45'0 0.0
2017-Sep-21 18:26N 52°25' E 004°45'0 0.0
2017-Sep-21 17:53N 52°25' E 004°45'0 0.0
2017-Sep-21 17:29N 52°25' E 004°45'0 0.0
2017-Sep-21 16:59N 52°25' E 004°45'0 0.0
2017-Sep-21 16:26N 52°25' E 004°45'0 0.0
2017-Sep-21 15:59N 52°25' E 004°45'0 0.0
2017-Sep-21 15:29N 52°25' E 004°45'0 0.0
2017-Sep-21 14:59N 52°25' E 004°45'0 0.0
2017-Sep-21 14:26N 52°25' E 004°45'0 0.0
2017-Sep-21 13:56N 52°25' E 004°45'0 0.0
2017-Sep-21 13:26N 52°25' E 004°45'0 0.0
2017-Sep-21 12:59N 52°25' E 004°45'0 0.0
2017-Sep-21 12:26N 52°25' E 004°45'0 0.0
2017-Sep-21 11:53N 52°25' E 004°45'0 0.0
2017-Sep-21 11:29N 52°25' E 004°45'0 0.0
2017-Sep-21 10:56N 52°25' E 004°45'0 0.0
2017-Sep-21 10:29N 52°25' E 004°45'0 0.0
2017-Sep-21 09:50N 52°25' E 004°45'0 0.0
2017-Sep-21 09:29N 52°25' E 004°45'0 0.0
2017-Sep-21 08:56N 52°25' E 004°45'0 0.0
2017-Sep-21 08:26N 52°25' E 004°45'0 0.0
2017-Sep-21 07:59N 52°25' E 004°45'0 0.0
2017-Sep-21 07:29N 52°25' E 004°45'0 0.0
2017-Sep-21 06:56N 52°25' E 004°45'0 0.0
2017-Sep-21 06:29N 52°25' E 004°45'0 0.0
2017-Sep-21 05:59N 52°25' E 004°45'0 0.0
2017-Sep-21 05:26N 52°25' E 004°45'0 0.0
2017-Sep-21 04:53N 52°25' E 004°45'0 0.0
2017-Sep-21 04:26N 52°25' E 004°45'0 0.0
2017-Sep-21 03:59N 52°25' E 004°45'0 0.0
2017-Sep-21 03:29N 52°25' E 004°45'0 0.0
2017-Sep-21 02:59N 52°25' E 004°45'0 0.0
2017-Sep-21 02:29N 52°25' E 004°45'0 0.0
2017-Sep-21 01:59N 52°25' E 004°45'0 0.0
2017-Sep-21 01:29N 52°25' E 004°45'0 0.0
2017-Sep-21 01:00N 52°25' E 004°45'1 2.1
2017-Sep-21 00:30N 52°26' E 004°45'4 8.1
2017-Sep-21 00:00N 52°28' E 004°39'2 3.1
2017-Sep-20 23:31N 52°28' E 004°36'3 6.4
2017-Sep-20 23:01N 52°28' E 004°31'511.0
2017-Sep-20 22:31N 52°29' E 004°22'612.4
2017-Sep-20 22:00N 52°29' E 004°12'611.2
2017-Sep-20 21:30N 52°28' E 004°03'2 4.6
2017-Sep-20 20:58N 52°26' E 003°60'0 0.1
2017-Sep-20 20:22N 52°26' E 004°00'0 0.1
2017-Sep-20 19:58N 52°26' E 004°00'0 0.0
2017-Sep-20 19:25N 52°26' E 004°00'0 0.1
2017-Sep-20 18:58N 52°26' E 004°00'0 0.0
2017-Sep-20 18:28N 52°26' E 004°00'0 0.1
2017-Sep-20 17:58N 52°26' E 004°00'0 0.0
2017-Sep-20 17:13N 52°26' E 004°00'0 0.0
2017-Sep-20 16:58N 52°26' E 004°00'0 0.0
2017-Sep-20 16:28N 52°26' E 004°00'0 0.0
2017-Sep-20 15:55N 52°26' E 004°00'0 0.0
2017-Sep-20 15:28N 52°26' E 004°00'0 0.0
2017-Sep-20 14:58N 52°26' E 004°00'0 0.0
2017-Sep-20 13:55N 52°26' E 004°00'0 0.0
2017-Sep-20 13:28N 52°26' E 004°00'0 0.1
2017-Sep-20 12:58N 52°26' E 004°00'0 0.1
2017-Sep-20 12:28N 52°26' E 004°00'0 0.1
2017-Sep-20 11:55N 52°26' E 004°00'0 0.1
2017-Sep-20 11:22N 52°26' E 003°60'0 0.1
2017-Sep-20 10:58N 52°26' E 003°60'0 0.0
2017-Sep-20 10:25N 52°26' E 003°60'0 0.0
2017-Sep-20 09:58N 52°26' E 003°60'0 0.0
2017-Sep-20 09:28N 52°26' E 003°60'0 0.0
2017-Sep-20 08:58N 52°26' E 003°60'0 0.0
2017-Sep-20 08:22N 52°26' E 003°60'0 0.0
2017-Sep-20 07:55N 52°26' E 003°60'0 0.1
2017-Sep-20 07:28N 52°26' E 003°60'0 0.1
2017-Sep-20 06:55N 52°26' E 004°00'0 0.1
2017-Sep-20 06:28N 52°26' E 004°00'0 0.1
2017-Sep-20 05:52N 52°26' E 004°00'0 0.0
2017-Sep-20 05:28N 52°26' E 004°00'0 0.1
2017-Sep-20 04:58N 52°26' E 004°00'0 0.0
2017-Sep-20 04:25N 52°26' E 004°00'0 0.1
2017-Sep-20 03:58N 52°26' E 004°00'0 0.0
2017-Sep-20 03:28N 52°26' E 004°00'0 0.1
2017-Sep-20 02:58N 52°26' E 004°00'0 0.0
2017-Sep-20 02:28N 52°26' E 004°00'0 0.0
2017-Sep-20 01:58N 52°26' E 004°00'0 0.0
2017-Sep-20 01:28N 52°26' E 004°00'0 0.1
2017-Sep-20 00:58N 52°26' E 004°00'0 0.1
2017-Sep-20 00:28N 52°26' E 004°00'0 0.1
2017-Sep-19 23:55N 52°26' E 004°00'0 0.1
2017-Sep-19 23:28N 52°26' E 003°60'0 0.0
2017-Sep-19 22:58N 52°26' E 003°60'0 0.0
2017-Sep-19 22:28N 52°26' E 003°60'0 0.0
2017-Sep-19 21:58N 52°26' E 003°60'0 0.0
2017-Sep-19 21:28N 52°26' E 003°60'0 0.0
2017-Sep-19 20:58N 52°26' E 003°60'0 0.0
2017-Sep-19 20:28N 52°26' E 003°60'0 0.0
2017-Sep-19 19:58N 52°26' E 003°60'0 0.0
2017-Sep-19 19:28N 52°26' E 003°60'0 0.0
2017-Sep-19 18:58N 52°26' E 003°60'0 0.1
2017-Sep-19 18:28N 52°26' E 003°60'0 0.1
2017-Sep-19 17:58N 52°26' E 004°00'0 0.0
2017-Sep-19 17:28N 52°26' E 004°00'0 0.1
2017-Sep-19 16:58N 52°26' E 004°00'0 0.1
2017-Sep-19 16:28N 52°26' E 004°00'0 0.1
2017-Sep-19 15:58N 52°26' E 004°00'0 0.1
2017-Sep-19 15:28N 52°26' E 004°00'0 0.0
2017-Sep-19 14:55N 52°26' E 003°60'0 0.0
2017-Sep-19 14:25N 52°26' E 004°00'0 0.0
2017-Sep-19 13:58N 52°26' E 004°00'0 0.0
2017-Sep-19 13:28N 52°26' E 004°00'0 0.1
2017-Sep-19 12:58N 52°26' E 004°00'0 0.1
2017-Sep-19 11:55N 52°26' E 003°60'0 0.1
2017-Sep-19 11:16N 52°26' E 003°60'0 0.0
2017-Sep-19 10:49N 52°26' E 003°60'0 0.0
2017-Sep-19 10:25N 52°26' E 003°60'0 0.0
2017-Sep-19 09:43N 52°26' E 003°60'0 0.1
2017-Sep-19 09:28N 52°26' E 003°60'0 0.0
2017-Sep-19 08:58N 52°26' E 003°60'0 0.0
2017-Sep-19 08:28N 52°26' E 003°60'0 0.0
2017-Sep-19 07:58N 52°26' E 003°60'0 0.0
2017-Sep-19 07:28N 52°26' E 003°60'0 0.0
2017-Sep-19 06:52N 52°26' E 003°60'0 0.0
2017-Sep-19 06:28N 52°26' E 003°60'0 0.0
2017-Sep-19 06:00N 52°26' E 003°60'1 1.8
2017-Sep-19 05:30N 52°26' E 003°58'4 7.9
2017-Sep-19 05:00N 52°27' E 003°52'612.8
2017-Sep-19 04:30N 52°25' E 003°42'2612.8
2017-Sep-19 02:29N 52°09' E 003°09'713.7
2017-Sep-19 02:00N 52°04' E 003°02'713.8
2017-Sep-19 01:30N 51°58' E 002°55'714.1
2017-Sep-19 00:59N 51°53' E 002°47'713.9
2017-Sep-19 00:29N 51°48' E 002°40'1613.9
2017-Sep-18 23:18N 51°35' E 002°22'413.7
2017-Sep-18 23:00N 51°32' E 002°18'713.1
2017-Sep-18 22:30N 51°27' E 002°12'612.9
2017-Sep-18 22:01N 51°21' E 002°09'712.9
2017-Sep-18 21:30N 51°15' E 002°05'612.6
2017-Sep-18 21:01N 51°11' E 001°57'612.7
2017-Sep-18 20:31N 51°09' E 001°48'611.7
2017-Sep-18 20:01N 51°04' E 001°41'611.0
2017-Sep-18 19:30N 51°00' E 001°35'510.8
2017-Sep-18 19:01N 50°56' E 001°29'510.0
2017-Sep-18 18:30N 50°52' E 001°26'510.2
2017-Sep-18 18:00N 50°47' E 001°23'710.5
2017-Sep-18 17:19N 50°40' E 001°19'311.3
2017-Sep-18 17:01N 50°38' E 001°15'611.3
2017-Sep-18 16:30N 50°34' E 001°08'1011.4
2017-Sep-18 15:38N 50°28' E 000°56'311.7
2017-Sep-18 15:23N 50°27' E 000°51'511.6
2017-Sep-18 14:59N 50°26' E 000°44'1511.6
2017-Sep-18 13:41N 50°22' E 000°21'211.4
2017-Sep-18 13:30N 50°22' E 000°18'611.3
2017-Sep-18 13:00N 50°20' E 000°10'611.4
2017-Sep-18 12:31N 50°19' E 000°01'611.4
2017-Sep-18 12:00N 50°17' W 000°07'611.4
2017-Sep-18 11:29N 50°14' W 000°16'2812.2
2017-Sep-18 09:10N 50°08' W 000°59'213.8
2017-Sep-18 08:59N 50°07' W 001°02'714.2
2017-Sep-18 08:30N 50°06' W 001°13'714.8
2017-Sep-18 08:01N 50°04' W 001°24'815.3
2017-Sep-18 07:30N 50°02' W 001°35'815.9
2017-Sep-18 07:01N 49°60' W 001°47'816.2
2017-Sep-18 06:30N 49°58' W 001°60'916.2
2017-Sep-18 05:58N 49°56' W 002°13'1315.4
2017-Sep-18 05:06N 49°52' W 002°33'114.9
2017-Sep-18 05:00N 49°52' W 002°35'714.7
2017-Sep-18 04:30N 49°49' W 002°46'814.4
2017-Sep-18 03:59N 49°47' W 002°57'714.1
2017-Sep-18 03:30N 49°46' W 003°07'714.0
2017-Sep-18 03:00N 49°44' W 003°17'713.7
2017-Sep-18 02:30N 49°42' W 003°27'713.3
2017-Sep-18 02:00N 49°41' W 003°38'713.3
2017-Sep-18 01:30N 49°40' W 003°48'713.0
2017-Sep-18 01:00N 49°40' W 003°58'612.8
2017-Sep-18 00:30N 49°40' W 004°08'2212.2
2017-Sep-17 22:41N 49°39' W 004°42'211.9
2017-Sep-17 22:29N 49°39' W 004°46'  
Track history (hours):
 
Tides and Currents Weather Stations Pressure Air Temp Water Temp Dewpoint Dewpoint Depression Visibility Wind Speed Wind Dir Waves Ship Positions

Gan-tribute

Last reported at 2017-Sep-22 01:59 UTC. Time now 2017-Sep-23 00:31 UTC.
Position N 52°25' E 004°45'.

Length 183 m; draft 8.1 m.

Type: Tanker. MMSI: 311036600.

Date/timePositionNaut miles runAvg speedWind from/ knotsBaromVisibWave heightAir tempDewpointWater temp
2017-Sep-22 01:59N 52°25' E 004°45'0 0.0
2017-Sep-22 01:29N 52°25' E 004°45'0 0.0
2017-Sep-22 00:59N 52°25' E 004°45'0 0.0
2017-Sep-22 00:29N 52°25' E 004°45'0 0.0
2017-Sep-21 23:59N 52°25' E 004°45'0 0.0
2017-Sep-21 23:29N 52°25' E 004°45'0 0.0
2017-Sep-21 22:59N 52°25' E 004°45'0 0.0
2017-Sep-21 22:26N 52°25' E 004°45'0 0.0
2017-Sep-21 21:59N 52°25' E 004°45'0 0.0
2017-Sep-21 21:29N 52°25' E 004°45'0 0.0
2017-Sep-21 20:59N 52°25' E 004°45'0 0.0
2017-Sep-21 20:29N 52°25' E 004°45'0 0.0
2017-Sep-21 19:59N 52°25' E 004°45'0 0.0
2017-Sep-21 19:29N 52°25' E 004°45'0 0.0
2017-Sep-21 18:59N 52°25' E 004°45'0 0.0
2017-Sep-21 18:26N 52°25' E 004°45'0 0.0
2017-Sep-21 17:53N 52°25' E 004°45'0 0.0
2017-Sep-21 17:29N 52°25' E 004°45'0 0.0
2017-Sep-21 16:59N 52°25' E 004°45'0 0.0
2017-Sep-21 16:26N 52°25' E 004°45'0 0.0
2017-Sep-21 15:59N 52°25' E 004°45'0 0.0
2017-Sep-21 15:29N 52°25' E 004°45'0 0.0
2017-Sep-21 14:59N 52°25' E 004°45'0 0.0
2017-Sep-21 14:26N 52°25' E 004°45'0 0.0
2017-Sep-21 13:56N 52°25' E 004°45'0 0.0
2017-Sep-21 13:26N 52°25' E 004°45'0 0.0
2017-Sep-21 12:59N 52°25' E 004°45'0 0.0
2017-Sep-21 12:26N 52°25' E 004°45'0 0.0
2017-Sep-21 11:53N 52°25' E 004°45'0 0.0
2017-Sep-21 11:29N 52°25' E 004°45'0 0.0
2017-Sep-21 10:56N 52°25' E 004°45'0 0.0
2017-Sep-21 10:29N 52°25' E 004°45'0 0.0
2017-Sep-21 09:50N 52°25' E 004°45'0 0.0
2017-Sep-21 09:29N 52°25' E 004°45'0 0.0
2017-Sep-21 08:56N 52°25' E 004°45'0 0.0
2017-Sep-21 08:26N 52°25' E 004°45'0 0.0
2017-Sep-21 07:59N 52°25' E 004°45'0 0.0
2017-Sep-21 07:29N 52°25' E 004°45'0 0.0
2017-Sep-21 06:56N 52°25' E 004°45'0 0.0
2017-Sep-21 06:29N 52°25' E 004°45'0 0.0
2017-Sep-21 05:59N 52°25' E 004°45'0 0.0
2017-Sep-21 05:26N 52°25' E 004°45'0 0.0
2017-Sep-21 04:53N 52°25' E 004°45'0 0.0
2017-Sep-21 04:26N 52°25' E 004°45'0 0.0
2017-Sep-21 03:59N 52°25' E 004°45'0 0.0
2017-Sep-21 03:29N 52°25' E 004°45'0 0.0
2017-Sep-21 02:59N 52°25' E 004°45'0 0.0
2017-Sep-21 02:29N 52°25' E 004°45'0 0.0
2017-Sep-21 01:59N 52°25' E 004°45'0 0.0
2017-Sep-21 01:29N 52°25' E 004°45'0 0.0
2017-Sep-21 01:00N 52°25' E 004°45'1 2.1
2017-Sep-21 00:30N 52°26' E 004°45'4 8.1
2017-Sep-21 00:00N 52°28' E 004°39'2 3.1
2017-Sep-20 23:31N 52°28' E 004°36'3 6.4
2017-Sep-20 23:01N 52°28' E 004°31'511.0
2017-Sep-20 22:31N 52°29' E 004°22'612.4
2017-Sep-20 22:00N 52°29' E 004°12'611.2
2017-Sep-20 21:30N 52°28' E 004°03'2 4.6
2017-Sep-20 20:58N 52°26' E 003°60'0 0.1
2017-Sep-20 20:22N 52°26' E 004°00'0 0.1
2017-Sep-20 19:58N 52°26' E 004°00'0 0.0
2017-Sep-20 19:25N 52°26' E 004°00'0 0.1
2017-Sep-20 18:58N 52°26' E 004°00'0 0.0
2017-Sep-20 18:28N 52°26' E 004°00'0 0.1
2017-Sep-20 17:58N 52°26' E 004°00'0 0.0
2017-Sep-20 17:13N 52°26' E 004°00'0 0.0
2017-Sep-20 16:58N 52°26' E 004°00'0 0.0
2017-Sep-20 16:28N 52°26' E 004°00'0 0.0
2017-Sep-20 15:55N 52°26' E 004°00'0 0.0
2017-Sep-20 15:28N 52°26' E 004°00'0 0.0
2017-Sep-20 14:58N 52°26' E 004°00'0 0.0
2017-Sep-20 13:55N 52°26' E 004°00'0 0.0
2017-Sep-20 13:28N 52°26' E 004°00'0 0.1
2017-Sep-20 12:58N 52°26' E 004°00'0 0.1
2017-Sep-20 12:28N 52°26' E 004°00'0 0.1
2017-Sep-20 11:55N 52°26' E 004°00'0 0.1
2017-Sep-20 11:22N 52°26' E 003°60'0 0.1
2017-Sep-20 10:58N 52°26' E 003°60'0 0.0
2017-Sep-20 10:25N 52°26' E 003°60'0 0.0
2017-Sep-20 09:58N 52°26' E 003°60'0 0.0
2017-Sep-20 09:28N 52°26' E 003°60'0 0.0
2017-Sep-20 08:58N 52°26' E 003°60'0 0.0
2017-Sep-20 08:22N 52°26' E 003°60'0 0.0
2017-Sep-20 07:55N 52°26' E 003°60'0 0.1
2017-Sep-20 07:28N 52°26' E 003°60'0 0.1
2017-Sep-20 06:55N 52°26' E 004°00'0 0.1
2017-Sep-20 06:28N 52°26' E 004°00'0 0.1
2017-Sep-20 05:52N 52°26' E 004°00'0 0.0
2017-Sep-20 05:28N 52°26' E 004°00'0 0.1
2017-Sep-20 04:58N 52°26' E 004°00'0 0.0
2017-Sep-20 04:25N 52°26' E 004°00'0 0.1
2017-Sep-20 03:58N 52°26' E 004°00'0 0.0
2017-Sep-20 03:28N 52°26' E 004°00'0 0.1
2017-Sep-20 02:58N 52°26' E 004°00'0 0.0
2017-Sep-20 02:28N 52°26' E 004°00'0 0.0
2017-Sep-20 01:58N 52°26' E 004°00'0 0.0
2017-Sep-20 01:28N 52°26' E 004°00'0 0.1
2017-Sep-20 00:58N 52°26' E 004°00'0 0.1
2017-Sep-20 00:28N 52°26' E 004°00'0 0.1
2017-Sep-19 23:55N 52°26' E 004°00'0 0.1
2017-Sep-19 23:28N 52°26' E 003°60'0 0.0
2017-Sep-19 22:58N 52°26' E 003°60'0 0.0
2017-Sep-19 22:28N 52°26' E 003°60'0 0.0
2017-Sep-19 21:58N 52°26' E 003°60'0 0.0
2017-Sep-19 21:28N 52°26' E 003°60'0 0.0
2017-Sep-19 20:58N 52°26' E 003°60'0 0.0
2017-Sep-19 20:28N 52°26' E 003°60'0 0.0
2017-Sep-19 19:58N 52°26' E 003°60'0 0.0
2017-Sep-19 19:28N 52°26' E 003°60'0 0.0
2017-Sep-19 18:58N 52°26' E 003°60'0 0.1
2017-Sep-19 18:28N 52°26' E 003°60'0 0.1
2017-Sep-19 17:58N 52°26' E 004°00'0 0.0
2017-Sep-19 17:28N 52°26' E 004°00'0 0.1
2017-Sep-19 16:58N 52°26' E 004°00'0 0.1
2017-Sep-19 16:28N 52°26' E 004°00'0 0.1
2017-Sep-19 15:58N 52°26' E 004°00'0 0.1
2017-Sep-19 15:28N 52°26' E 004°00'0 0.0
2017-Sep-19 14:55N 52°26' E 003°60'0 0.0
2017-Sep-19 14:25N 52°26' E 004°00'0 0.0
2017-Sep-19 13:58N 52°26' E 004°00'0 0.0
2017-Sep-19 13:28N 52°26' E 004°00'0 0.1
2017-Sep-19 12:58N 52°26' E 004°00'0 0.1
2017-Sep-19 11:55N 52°26' E 003°60'0 0.1
2017-Sep-19 11:16N 52°26' E 003°60'0 0.0
2017-Sep-19 10:49N 52°26' E 003°60'0 0.0
2017-Sep-19 10:25N 52°26' E 003°60'0 0.0
2017-Sep-19 09:43N 52°26' E 003°60'0 0.1
2017-Sep-19 09:28N 52°26' E 003°60'0 0.0
2017-Sep-19 08:58N 52°26' E 003°60'0 0.0
2017-Sep-19 08:28N 52°26' E 003°60'0 0.0
2017-Sep-19 07:58N 52°26' E 003°60'0 0.0
2017-Sep-19 07:28N 52°26' E 003°60'0 0.0
2017-Sep-19 06:52N 52°26' E 003°60'0 0.0
2017-Sep-19 06:28N 52°26' E 003°60'0 0.0
2017-Sep-19 06:00N 52°26' E 003°60'1 1.8
2017-Sep-19 05:30N 52°26' E 003°58'4 7.9
2017-Sep-19 05:00N 52°27' E 003°52'612.8
2017-Sep-19 04:30N 52°25' E 003°42'2612.8
2017-Sep-19 02:29N 52°09' E 003°09'713.7
2017-Sep-19 02:00N 52°04' E 003°02'713.8
2017-Sep-19 01:30N 51°58' E 002°55'714.1
2017-Sep-19 00:59N 51°53' E 002°47'713.9
2017-Sep-19 00:29N 51°48' E 002°40'1613.9
2017-Sep-18 23:18N 51°35' E 002°22'413.7
2017-Sep-18 23:00N 51°32' E 002°18'713.1
2017-Sep-18 22:30N 51°27' E 002°12'612.9
2017-Sep-18 22:01N 51°21' E 002°09'712.9
2017-Sep-18 21:30N 51°15' E 002°05'612.6
2017-Sep-18 21:01N 51°11' E 001°57'612.7
2017-Sep-18 20:31N 51°09' E 001°48'611.7
2017-Sep-18 20:01N 51°04' E 001°41'611.0
2017-Sep-18 19:30N 51°00' E 001°35'510.8
2017-Sep-18 19:01N 50°56' E 001°29'510.0
2017-Sep-18 18:30N 50°52' E 001°26'510.2
2017-Sep-18 18:00N 50°47' E 001°23'710.5
2017-Sep-18 17:19N 50°40' E 001°19'311.3
2017-Sep-18 17:01N 50°38' E 001°15'611.3
2017-Sep-18 16:30N 50°34' E 001°08'1011.4
2017-Sep-18 15:38N 50°28' E 000°56'311.7
2017-Sep-18 15:23N 50°27' E 000°51'511.6
2017-Sep-18 14:59N 50°26' E 000°44'1511.6
2017-Sep-18 13:41N 50°22' E 000°21'211.4
2017-Sep-18 13:30N 50°22' E 000°18'611.3
2017-Sep-18 13:00N 50°20' E 000°10'611.4
2017-Sep-18 12:31N 50°19' E 000°01'611.4
2017-Sep-18 12:00N 50°17' W 000°07'611.4
2017-Sep-18 11:29N 50°14' W 000°16'2812.2
2017-Sep-18 09:10N 50°08' W 000°59'213.8
2017-Sep-18 08:59N 50°07' W 001°02'714.2
2017-Sep-18 08:30N 50°06' W 001°13'714.8
2017-Sep-18 08:01N 50°04' W 001°24'815.3
2017-Sep-18 07:30N 50°02' W 001°35'815.9
2017-Sep-18 07:01N 49°60' W 001°47'816.2
2017-Sep-18 06:30N 49°58' W 001°60'916.2
2017-Sep-18 05:58N 49°56' W 002°13'1315.4
2017-Sep-18 05:06N 49°52' W 002°33'114.9
2017-Sep-18 05:00N 49°52' W 002°35'714.7
2017-Sep-18 04:30N 49°49' W 002°46'814.4
2017-Sep-18 03:59N 49°47' W 002°57'714.1
2017-Sep-18 03:30N 49°46' W 003°07'714.0
2017-Sep-18 03:00N 49°44' W 003°17'713.7
2017-Sep-18 02:30N 49°42' W 003°27'713.3
2017-Sep-18 02:00N 49°41' W 003°38'713.3
2017-Sep-18 01:30N 49°40' W 003°48'713.0
2017-Sep-18 01:00N 49°40' W 003°58'612.8
2017-Sep-18 00:30N 49°40' W 004°08'2212.2
2017-Sep-17 22:41N 49°39' W 004°42'211.9
2017-Sep-17 22:29N 49°39' W 004°46'  

Dump ship's entire track history